createdAt,value
2018-03-21T00:00:10.474Z,97571
2018-03-21T00:02:39.440Z,97570
2018-03-21T00:05:07.620Z,97572
2018-03-21T00:07:35.839Z,97572
2018-03-21T00:10:04.044Z,97570
2018-03-21T00:12:32.268Z,97575
2018-03-21T00:15:00.443Z,97584
2018-03-21T00:17:29.402Z,97583
2018-03-21T00:19:57.583Z,97584
2018-03-21T00:22:25.778Z,97583
2018-03-21T00:24:54.730Z,97578
2018-03-21T00:27:23.675Z,97579
2018-03-21T00:29:51.864Z,97574
2018-03-21T00:32:20.042Z,97573
2018-03-21T00:34:48.239Z,97572
2018-03-21T00:37:16.417Z,97574
2018-03-21T00:39:44.634Z,97567
2018-03-21T00:42:13.602Z,97560
2018-03-21T00:44:41.786Z,97547
2018-03-21T00:47:09.975Z,97543
2018-03-21T00:49:38.950Z,97544
2018-03-21T00:52:07.171Z,97541
2018-03-21T00:54:35.354Z,97537
2018-03-21T00:57:03.539Z,97536
2018-03-21T00:59:31.719Z,97534
2018-03-21T01:01:59.901Z,97535
2018-03-21T01:04:28.086Z,97527
2018-03-21T01:06:56.294Z,97530
2018-03-21T01:09:25.257Z,97527
2018-03-21T01:11:53.442Z,97530
2018-03-21T01:14:21.622Z,97531
2018-03-21T01:16:49.820Z,97534
2018-03-21T01:19:18.809Z,97529
2018-03-21T01:21:47.768Z,97537
2018-03-21T01:24:16.027Z,97534
2018-03-21T01:26:44.211Z,97540
2018-03-21T01:29:12.388Z,97548
2018-03-21T01:31:40.603Z,97548
2018-03-21T01:34:09.578Z,97548
2018-03-21T01:36:37.765Z,97545
2018-03-21T01:39:06.721Z,97549
2018-03-21T01:41:36.058Z,97544
2018-03-21T01:44:05.019Z,97543
2018-03-21T01:46:33.212Z,97542
2018-03-21T01:49:01.414Z,97532
2018-03-21T01:51:30.383Z,97536
2018-03-21T01:53:58.567Z,97535
2018-03-21T01:56:27.523Z,97536
2018-03-21T01:58:55.712Z,97545
2018-03-21T02:01:23.908Z,97536
2018-03-21T02:03:52.082Z,97537
2018-03-21T02:06:20.317Z,97545
2018-03-21T02:08:48.500Z,97547
2018-03-21T02:11:17.448Z,97548
2018-03-21T02:13:45.656Z,97551
2018-03-21T02:16:13.859Z,97549
2018-03-21T02:18:42.052Z,97545
2018-03-21T02:21:10.226Z,97558
2018-03-21T02:23:38.411Z,97552
2018-03-21T02:26:07.417Z,97546
2018-03-21T02:28:36.377Z,97553
2018-03-21T02:31:04.568Z,97552
2018-03-21T02:33:33.546Z,97568
2018-03-21T02:36:01.770Z,97554
2018-03-21T02:38:29.963Z,97560
2018-03-21T02:40:58.198Z,97561
2018-03-21T02:43:27.159Z,97564
2018-03-21T02:45:55.329Z,97565
2018-03-21T02:48:23.558Z,97559
2018-03-21T02:50:51.761Z,97567
2018-03-21T02:53:19.953Z,97572
2018-03-21T02:55:48.143Z,97580
2018-03-21T02:58:16.332Z,97580
2018-03-21T03:00:45.302Z,97578
2018-03-21T03:03:13.493Z,97589
2018-03-21T03:05:41.703Z,97583
2018-03-21T03:08:09.894Z,97589
2018-03-21T03:10:38.075Z,97588
2018-03-21T03:13:06.266Z,97599
2018-03-21T03:15:34.458Z,97603
2018-03-21T03:18:02.662Z,97616
2018-03-21T03:20:31.628Z,97614
2018-03-21T03:22:59.832Z,97613
2018-03-21T03:25:28.789Z,97612
2018-03-21T03:27:56.990Z,97612
2018-03-21T03:30:25.963Z,97626
2018-03-21T03:32:54.180Z,97628
2018-03-21T03:35:22.388Z,97627
2018-03-21T03:37:50.578Z,97630
2018-03-21T03:40:20.279Z,97629
2018-03-21T03:42:48.470Z,97623
2018-03-21T03:45:16.666Z,97634
2018-03-21T03:47:45.660Z,97636
2018-03-21T03:50:14.637Z,97635
2018-03-21T03:52:42.853Z,97637
2018-03-21T03:55:11.073Z,97637
2018-03-21T03:57:39.247Z,97643
2018-03-21T04:00:07.471Z,97644
2018-03-21T04:02:36.435Z,97654
2018-03-21T04:05:04.640Z,97655
2018-03-21T04:07:32.822Z,97657
2018-03-21T04:10:01.034Z,97663
2018-03-21T04:12:29.225Z,97658
2018-03-21T04:14:57.436Z,97663
2018-03-21T04:17:26.378Z,97664
2018-03-21T04:19:54.579Z,97665
2018-03-21T04:22:22.779Z,97665
2018-03-21T04:24:51.748Z,97665
2018-03-21T04:27:19.951Z,97664
2018-03-21T04:29:48.134Z,97668
2018-03-21T04:32:16.472Z,97674
2018-03-21T04:34:44.680Z,97679
2018-03-21T04:37:12.897Z,97684
2018-03-21T04:39:41.097Z,97696
2018-03-21T04:42:09.331Z,97697
2018-03-21T04:44:37.549Z,97704
2018-03-21T04:47:06.274Z,97705
2018-03-21T04:49:34.471Z,97713
2018-03-21T04:52:02.661Z,97715
2018-03-21T04:54:31.611Z,97721
2018-03-21T04:56:59.918Z,97722
2018-03-21T04:59:28.102Z,97728
2018-03-21T05:01:56.283Z,97729
2018-03-21T05:04:24.506Z,97739
2018-03-21T05:06:53.477Z,97740
2018-03-21T05:09:21.674Z,97748
2018-03-21T05:11:50.628Z,97753
2018-03-21T05:14:18.840Z,97762
2018-03-21T05:16:47.791Z,97760
2018-03-21T05:19:16.002Z,97769
2018-03-21T05:21:44.972Z,97772
2018-03-21T05:24:13.149Z,97778
2018-03-21T05:26:41.402Z,97787
2018-03-21T05:29:09.586Z,97786
2018-03-21T05:31:37.769Z,97791
2018-03-21T05:34:05.991Z,97798
2018-03-21T05:36:34.176Z,97793
2018-03-21T05:39:02.382Z,97793
2018-03-21T05:41:30.578Z,97796
2018-03-21T05:43:58.796Z,97803
2018-03-21T05:46:26.995Z,97810
2018-03-21T05:48:55.208Z,97812
2018-03-21T05:51:23.414Z,97819
2018-03-21T05:53:51.600Z,97821
2018-03-21T05:56:19.822Z,97824
2018-03-21T05:58:48.003Z,97827
2018-03-21T06:01:16.203Z,97834
2018-03-21T06:03:45.172Z,97834
2018-03-21T06:06:13.389Z,97832
2018-03-21T06:08:41.606Z,97843
2018-03-21T06:11:09.791Z,97846
2018-03-21T06:13:37.991Z,97849
2018-03-21T06:16:06.954Z,97852
2018-03-21T06:18:35.193Z,97852
2018-03-21T06:21:03.394Z,97854
2018-03-21T06:23:33.629Z,97863
2018-03-21T06:26:01.831Z,97863
2018-03-21T06:28:30.836Z,97865
2018-03-21T06:30:59.805Z,97872
2018-03-21T06:33:27.996Z,97872
2018-03-21T06:35:56.951Z,97872
2018-03-21T06:38:25.173Z,97880
2018-03-21T06:40:54.130Z,97883
2018-03-21T06:43:22.339Z,97880
2018-03-21T06:45:51.320Z,97894
2018-03-21T06:48:20.446Z,97895
2018-03-21T06:50:49.422Z,97899
2018-03-21T06:53:18.386Z,97906
2018-03-21T06:55:46.569Z,97901
2018-03-21T06:58:14.761Z,97906
2018-03-21T07:00:43.714Z,97899
2018-03-21T07:03:11.913Z,97898
2018-03-21T07:05:40.094Z,97904
2018-03-21T07:08:09.051Z,97900
2018-03-21T07:10:38.009Z,97903
2018-03-21T07:13:06.184Z,97907
2018-03-21T07:15:52.125Z,97909
2018-03-21T07:18:20.306Z,97911
2018-03-21T07:20:48.493Z,97910
2018-03-21T07:23:17.438Z,97914
2018-03-21T07:25:45.637Z,97913
2018-03-21T07:28:13.815Z,97913
2018-03-21T07:30:42.028Z,97918
2018-03-21T07:33:10.209Z,97920
2018-03-21T07:35:38.386Z,97915
2018-03-21T07:38:06.573Z,97917
2018-03-21T07:40:34.742Z,97920
2018-03-21T07:43:02.931Z,97917
2018-03-21T07:45:31.130Z,97911
2018-03-21T07:47:59.310Z,97903
2018-03-21T07:50:27.513Z,97900
2018-03-21T07:52:56.462Z,97909
2018-03-21T07:55:24.640Z,97905
2018-03-21T07:57:52.804Z,97887
2018-03-21T08:00:20.994Z,97902
2018-03-21T09:24:46.874Z,97906
2018-03-21T09:27:15.051Z,97903
2018-03-21T09:29:43.986Z,97900
2018-03-21T09:32:13.149Z,97903
2018-03-21T09:34:41.327Z,97896
2018-03-21T09:37:09.520Z,97895
2018-03-21T09:39:37.714Z,97897
2018-03-21T09:42:06.669Z,97896
2018-03-21T09:44:34.848Z,97891
2018-03-21T09:47:03.019Z,97892
2018-03-21T09:49:31.216Z,97895
2018-03-21T09:51:59.395Z,97894
2018-03-21T09:54:28.355Z,97892
2018-03-21T09:56:56.578Z,97897
2018-03-21T09:59:25.569Z,97896
2018-03-21T10:01:53.733Z,97898
2018-03-21T10:04:22.700Z,97898
2018-03-21T10:06:51.634Z,97902
2018-03-21T10:09:20.572Z,97902
2018-03-21T10:11:48.749Z,97895
2018-03-21T10:14:16.950Z,97896
2018-03-21T10:16:45.107Z,97893
2018-03-21T10:19:13.433Z,97891
2018-03-21T10:21:41.607Z,97897
2018-03-21T10:24:10.534Z,97895
2018-03-21T10:26:38.710Z,97894
2018-03-21T10:29:06.890Z,97894
2018-03-21T10:31:35.074Z,97895
2018-03-21T10:34:03.268Z,97892
2018-03-21T10:36:31.465Z,97894
2018-03-21T10:39:00.412Z,97900
2018-03-21T10:41:28.655Z,97903
2018-03-21T10:43:56.855Z,97906
2018-03-21T10:46:25.021Z,97905
2018-03-21T10:48:53.207Z,97912
2018-03-21T10:51:21.400Z,97904
2018-03-21T10:53:49.577Z,97902
2018-03-21T10:56:17.767Z,97897
2018-03-21T10:58:45.955Z,97900
2018-03-21T11:01:20.316Z,97897
2018-03-21T11:03:53.913Z,97895
2018-03-21T11:06:22.099Z,97898
2018-03-21T11:08:50.271Z,97894
2018-03-21T11:11:18.440Z,97896
2018-03-21T11:13:46.617Z,97892
2018-03-21T11:16:14.803Z,97889
2018-03-21T11:18:42.981Z,97890
2018-03-21T11:21:11.170Z,97884
2018-03-21T11:23:39.341Z,97890
2018-03-21T11:26:07.510Z,97887
2018-03-21T11:28:35.701Z,97883
2018-03-21T11:31:03.874Z,97884
2018-03-21T11:33:32.048Z,97882
2018-03-21T11:36:00.240Z,97884
2018-03-21T11:38:29.211Z,97891
2018-03-21T11:40:57.381Z,97884
2018-03-21T11:43:25.570Z,97879
2018-03-21T11:45:53.738Z,97873
2018-03-21T11:48:21.915Z,97885
2018-03-21T11:50:50.114Z,97885
2018-03-21T11:53:19.083Z,97883
2018-03-21T11:55:47.277Z,97880
2018-03-21T11:58:16.239Z,97882
2018-03-21T12:00:44.434Z,97879
2018-03-21T12:03:12.629Z,97883
2018-03-21T12:05:41.568Z,97878
2018-03-21T12:08:09.754Z,97879
2018-03-21T12:10:37.937Z,97877
2018-03-21T12:13:06.164Z,97873
2018-03-21T12:15:35.087Z,97872
2018-03-21T12:18:04.018Z,97870
2018-03-21T12:20:32.955Z,97880
2018-03-21T12:23:01.134Z,97868
2018-03-21T12:25:29.319Z,97876
2018-03-21T12:27:57.489Z,97873
2018-03-21T12:30:25.673Z,97871
2018-03-21T12:32:54.615Z,97875
2018-03-21T12:35:22.794Z,97882
2018-03-21T12:37:51.739Z,97881
2018-03-21T12:40:19.910Z,97881
2018-03-21T12:42:48.074Z,97886
2018-03-21T12:45:16.250Z,97887
2018-03-21T12:47:44.423Z,97889
2018-03-21T12:50:12.617Z,97892
2018-03-21T12:52:41.553Z,97893
2018-03-21T12:55:09.718Z,97893
2018-03-21T12:57:38.657Z,97892
2018-03-21T13:00:07.159Z,97892
2018-03-21T13:02:35.348Z,97899
2018-03-21T13:05:04.298Z,97899
2018-03-21T13:07:32.507Z,97891
2018-03-21T13:10:00.690Z,97891
2018-03-21T13:12:28.878Z,97903
2018-03-21T13:14:57.814Z,97896
2018-03-21T13:17:26.000Z,97903
2018-03-21T13:19:54.187Z,97902
2018-03-21T13:22:22.361Z,97905
2018-03-21T13:24:50.562Z,97906
2018-03-21T13:27:19.510Z,97901
2018-03-21T13:29:47.686Z,97908
2018-03-21T13:32:15.858Z,97904
2018-03-21T13:34:44.024Z,97909
2018-03-21T13:37:12.202Z,97908
2018-03-21T13:39:40.392Z,97906
2018-03-21T13:42:08.583Z,97907
2018-03-21T13:44:36.752Z,97904
2018-03-21T13:47:04.949Z,97907
2018-03-21T13:49:33.898Z,97905
2018-03-21T13:52:02.082Z,97913
2018-03-21T13:54:30.294Z,97913
2018-03-21T13:56:59.246Z,97914
2018-03-21T13:59:27.445Z,97916
2018-03-21T14:01:55.620Z,97906
2018-03-21T14:04:23.808Z,97916
2018-03-21T14:06:52.816Z,97906
2018-03-21T14:09:21.751Z,97914
2018-03-21T14:11:49.931Z,97907
2018-03-21T14:14:18.122Z,97904
2018-03-21T14:16:46.294Z,97906
2018-03-21T14:19:14.463Z,97905
2018-03-21T14:21:42.639Z,97912
2018-03-21T14:24:11.594Z,97911
2018-03-21T14:26:39.766Z,97911
2018-03-21T14:29:07.946Z,97902
2018-03-21T14:31:36.139Z,97901
2018-03-21T14:34:04.308Z,97901
2018-03-21T14:36:32.489Z,97904
2018-03-21T14:39:00.709Z,97905
2018-03-21T14:41:28.898Z,97901
2018-03-21T14:43:57.827Z,97911
2018-03-21T14:46:26.102Z,97906
2018-03-21T14:48:54.545Z,97913
2018-03-21T14:51:23.483Z,97917
2018-03-21T14:53:51.648Z,97909
2018-03-21T14:56:19.833Z,97910
2018-03-21T14:58:47.997Z,97910
2018-03-21T15:01:16.167Z,97904
2018-03-21T15:03:44.412Z,97908
2018-03-21T15:06:12.531Z,97905
2018-03-21T15:08:40.707Z,97898
2018-03-21T15:11:08.885Z,97897
2018-03-21T15:13:37.061Z,97893
2018-03-21T15:16:05.235Z,97890
2018-03-21T15:18:33.440Z,97894
2018-03-21T15:21:02.403Z,97896
2018-03-21T15:23:30.580Z,97900
2018-03-21T15:25:58.802Z,97901
2018-03-21T15:28:27.762Z,97905
2018-03-21T15:30:55.932Z,97898
2018-03-21T15:33:24.131Z,97898
2018-03-21T15:35:52.303Z,97901
2018-03-21T15:38:21.268Z,97899
2018-03-21T15:40:49.447Z,97902
2018-03-21T15:43:18.396Z,97902
2018-03-21T15:45:46.578Z,97901
2018-03-21T15:48:14.749Z,97906
2018-03-21T15:50:42.958Z,97908
2018-03-21T15:53:11.130Z,97909
2018-03-21T15:55:39.311Z,97913
2018-03-21T15:58:08.261Z,97917
2018-03-21T16:00:36.434Z,97919
2018-03-21T16:03:04.628Z,97921
2018-03-21T16:05:32.821Z,97927
2018-03-21T16:08:00.986Z,97926
2018-03-21T16:10:29.156Z,97938
2018-03-21T16:12:57.333Z,97937
2018-03-21T16:15:25.519Z,97942
2018-03-21T16:17:53.695Z,97949
2018-03-21T16:20:22.631Z,97956
2018-03-21T16:22:51.571Z,97955
2018-03-21T16:25:19.735Z,97957
2018-03-21T16:27:47.925Z,97963
2018-03-21T16:30:16.087Z,97972
2018-03-21T16:32:44.259Z,97974
2018-03-21T16:35:12.454Z,97977
2018-03-21T16:37:40.626Z,97989
2018-03-21T16:40:08.805Z,97989
2018-03-21T16:42:36.992Z,97995
2018-03-21T16:45:05.190Z,97998
2018-03-21T16:47:34.159Z,98000
2018-03-21T16:50:02.328Z,98007
2018-03-21T16:52:31.288Z,98005
2018-03-21T16:54:59.448Z,98006
2018-03-21T16:57:27.619Z,98009
2018-03-21T16:59:56.022Z,98010
2018-03-21T17:02:24.230Z,98008
2018-03-21T17:04:52.426Z,98022
2018-03-21T17:07:21.398Z,98024
2018-03-21T17:09:49.569Z,98024
2018-03-21T17:12:17.742Z,98035
2018-03-21T17:14:45.936Z,98037
2018-03-21T17:17:14.347Z,98043
2018-03-21T17:19:42.533Z,98044
2018-03-21T17:22:10.700Z,98042
2018-03-21T17:24:38.866Z,98049
2018-03-21T17:27:07.051Z,98056
2018-03-21T17:29:35.283Z,98056
2018-03-21T17:32:03.465Z,98053
2018-03-21T17:34:33.151Z,98059
2018-03-21T17:37:01.337Z,98068
2018-03-21T17:39:29.510Z,98066
2018-03-21T17:41:57.701Z,98075
2018-03-21T17:44:25.883Z,98073
2018-03-21T17:46:54.822Z,98086
2018-03-21T17:49:22.998Z,98087
2018-03-21T17:51:51.175Z,98098
2018-03-21T17:54:19.371Z,98109
2018-03-21T17:56:48.463Z,98110
2018-03-21T17:59:16.669Z,98121
2018-03-21T18:01:45.612Z,98127
2018-03-21T18:04:13.797Z,98134
2018-03-21T18:06:41.970Z,98135
2018-03-21T18:09:10.153Z,98134
2018-03-21T18:11:38.343Z,98131
2018-03-21T18:14:06.523Z,98142
2018-03-21T18:16:34.809Z,98152
2018-03-21T18:19:03.752Z,98152
2018-03-21T18:21:31.924Z,98154
2018-03-21T18:24:00.098Z,98163
2018-03-21T18:26:28.284Z,98165
2018-03-21T18:28:56.471Z,98165
2018-03-21T18:31:24.671Z,98168
2018-03-21T18:33:52.848Z,98171
2018-03-21T18:36:21.019Z,98167
2018-03-21T18:38:49.258Z,98173
2018-03-21T18:41:17.559Z,98175
2018-03-21T18:43:45.852Z,98178
2018-03-21T18:46:14.820Z,98186
2018-03-21T18:48:43.099Z,98186
2018-03-21T18:51:11.304Z,98185
2018-03-21T18:53:40.253Z,98188
2018-03-21T18:56:08.469Z,98185
2018-03-21T18:58:37.409Z,98188
2018-03-21T19:01:05.797Z,98190
2018-03-21T19:03:35.020Z,98190
2018-03-21T19:06:03.220Z,98189
2018-03-21T19:08:32.226Z,98191
2018-03-21T19:11:01.177Z,98192
2018-03-21T19:13:29.607Z,98193
2018-03-21T19:15:59.019Z,98198
2018-03-21T19:18:28.020Z,98196
2018-03-21T19:20:56.197Z,98198
2018-03-21T19:23:24.387Z,98200
2018-03-21T19:25:52.563Z,98199
2018-03-21T19:28:20.783Z,98200
2018-03-21T19:30:49.731Z,98205
2018-03-21T19:33:17.914Z,98207
2018-03-21T19:35:46.123Z,98209
2018-03-21T19:38:15.092Z,98218
2018-03-21T19:40:43.787Z,98216
2018-03-21T19:43:12.317Z,98218
2018-03-21T19:45:40.534Z,98216
2018-03-21T19:48:08.766Z,98221
2018-03-21T19:50:36.972Z,98219
2018-03-21T19:53:05.260Z,98219
2018-03-21T19:55:33.756Z,98222
2018-03-21T19:58:02.130Z,98219
2018-03-21T20:00:30.322Z,98225
2018-03-21T20:02:59.280Z,98221
2018-03-21T20:05:27.501Z,98222
2018-03-21T20:07:55.717Z,98214
2018-03-21T20:10:23.886Z,98218
2018-03-21T20:12:52.100Z,98222
2018-03-21T20:15:20.295Z,98226
2018-03-21T20:17:49.261Z,98230
2018-03-21T20:20:17.487Z,98229
2018-03-21T20:22:45.673Z,98225
2018-03-21T20:25:13.867Z,98221
2018-03-21T20:27:42.036Z,98221
2018-03-21T20:30:10.225Z,98218
2018-03-21T20:32:38.451Z,98220
2018-03-21T20:35:06.631Z,98226
2018-03-21T20:37:34.810Z,98221
2018-03-21T20:40:03.000Z,98226
2018-03-21T20:42:31.188Z,98225
2018-03-21T20:44:59.394Z,98228
2018-03-21T20:47:27.592Z,98229
2018-03-21T20:49:56.540Z,98232
2018-03-21T20:52:24.828Z,98232
2018-03-21T20:54:53.005Z,98227
2018-03-21T20:57:21.202Z,98230
2018-03-21T20:59:50.144Z,98226
2018-03-21T21:02:18.316Z,98225
2018-03-21T21:04:46.495Z,98229
2018-03-21T21:07:14.668Z,98230
2018-03-21T21:09:42.840Z,98235
2018-03-21T21:12:11.033Z,98231
2018-03-21T21:14:39.209Z,98221
2018-03-21T21:17:07.419Z,98231
2018-03-21T21:19:36.369Z,98227
2018-03-21T21:22:04.544Z,98229
2018-03-21T21:24:32.723Z,98229
2018-03-21T21:27:00.894Z,98220
2018-03-21T21:29:29.062Z,98231
2018-03-21T21:31:57.244Z,98230
2018-03-21T21:34:25.418Z,98229
2018-03-21T21:36:53.594Z,98228
2018-03-21T21:39:21.779Z,98231
2018-03-21T21:41:49.956Z,98225
2018-03-21T21:44:18.170Z,98225
2018-03-21T21:46:47.125Z,98217
2018-03-21T21:49:15.308Z,98224
2018-03-21T21:51:43.502Z,98219
2018-03-21T21:54:12.451Z,98223
2018-03-21T21:56:40.732Z,98222
2018-03-21T21:59:08.961Z,98224
2018-03-21T22:01:37.163Z,98222
2018-03-21T22:04:05.366Z,98221
2018-03-21T22:06:33.558Z,98213
2018-03-21T22:09:01.759Z,98213
2018-03-21T22:55:11.946Z,98202
2018-03-21T22:57:40.147Z,98206
2018-03-21T23:00:08.348Z,98205
2018-03-21T23:02:37.300Z,98203
2018-03-21T23:05:05.520Z,98206
2018-03-21T23:07:34.492Z,98207
2018-03-21T23:10:02.686Z,98202
2018-03-21T23:12:31.666Z,98197
2018-03-21T23:14:59.855Z,98204
2018-03-21T23:17:28.822Z,98206
2018-03-21T23:19:57.028Z,98202
2018-03-21T23:22:26.004Z,98204
2018-03-21T23:24:54.266Z,98209
2018-03-21T23:27:22.416Z,98207
2018-03-21T23:29:50.604Z,98206
2018-03-21T23:32:18.795Z,98204
2018-03-21T23:34:47.014Z,98207
2018-03-21T23:37:15.220Z,98192
2018-03-21T23:39:43.407Z,98205
2018-03-21T23:42:11.612Z,98203
2018-03-21T23:44:39.804Z,98205
2018-03-21T23:47:08.034Z,98201
2018-03-21T23:49:36.228Z,98212
2018-03-21T23:52:04.421Z,98215
2018-03-21T23:54:33.373Z,98213
2018-03-21T23:57:01.560Z,98212
2018-03-21T23:59:29.727Z,98210
